createdAt,value
2022-09-24T00:00:58.158Z,15.54
2022-09-24T00:01:58.197Z,15.58
2022-09-24T00:02:58.225Z,15.47
2022-09-24T00:03:58.178Z,15.58
2022-09-24T00:05:58.193Z,15.47
2022-09-24T00:06:58.209Z,15.49
2022-09-24T00:07:58.249Z,15.46
2022-09-24T00:08:58.225Z,15.49
2022-09-24T00:09:58.225Z,15.52
2022-09-24T00:10:58.231Z,15.52
2022-09-24T00:11:58.241Z,15.51
2022-09-24T00:12:58.248Z,15.55
2022-09-24T00:13:58.287Z,15.49
2022-09-24T00:14:58.272Z,15.46
2022-09-24T00:15:58.355Z,15.44
2022-09-24T00:16:58.282Z,15.35
2022-09-24T00:17:58.297Z,15.40
2022-09-24T00:18:58.304Z,15.35
2022-09-24T00:19:58.307Z,15.25
2022-09-24T00:20:58.319Z,15.28
2022-09-24T00:21:58.324Z,15.31
2022-09-24T00:22:58.330Z,15.21
2022-09-24T00:23:58.351Z,15.27
2022-09-24T00:24:58.347Z,15.17
2022-09-24T00:25:58.361Z,15.19
2022-09-24T00:26:58.363Z,15.11
2022-09-24T00:27:58.370Z,15.19
2022-09-24T00:28:58.387Z,15.18
2022-09-24T00:29:58.386Z,15.17
2022-09-24T00:30:58.526Z,15.17
2022-09-24T00:31:58.433Z,15.18
2022-09-24T00:32:58.410Z,15.17
2022-09-24T00:33:58.424Z,15.10
2022-09-24T00:34:58.434Z,15.10
2022-09-24T00:35:58.440Z,15.09
2022-09-24T00:36:58.442Z,15.09
2022-09-24T00:37:58.456Z,15.09
2022-09-24T00:38:58.466Z,15.11
2022-09-24T00:39:58.474Z,15.06
2022-09-24T00:40:58.473Z,15.02
2022-09-24T00:41:58.488Z,15.02
2022-09-24T00:42:58.494Z,14.94
2022-09-24T00:43:58.499Z,14.97
2022-09-24T00:44:58.503Z,15.00
2022-09-24T00:45:58.513Z,14.94
2022-09-24T00:46:58.566Z,14.94
2022-09-24T00:47:58.554Z,14.99
2022-09-24T00:48:58.542Z,14.94
2022-09-24T00:49:58.544Z,15.00
2022-09-24T00:50:58.559Z,14.92
2022-09-24T00:51:58.579Z,14.91
2022-09-24T00:52:58.574Z,14.92
2022-09-24T00:53:58.576Z,14.88
2022-09-24T00:54:58.590Z,14.91
2022-09-24T00:55:58.606Z,14.88
2022-09-24T00:56:58.599Z,14.88
2022-09-24T00:57:58.606Z,14.92
2022-09-24T00:58:58.622Z,14.82
2022-09-24T00:59:58.629Z,14.79
2022-09-24T01:00:58.688Z,14.84
2022-09-24T01:01:58.662Z,14.82
2022-09-24T01:02:58.654Z,14.82
2022-09-24T01:03:58.684Z,14.84
2022-09-24T01:04:58.669Z,14.79
2022-09-24T01:05:58.668Z,14.91
2022-09-24T01:06:58.679Z,14.99
2022-09-24T01:07:58.684Z,14.91
2022-09-24T01:08:58.701Z,15.00
2022-09-24T01:09:58.708Z,15.02
2022-09-24T01:10:58.709Z,14.97
2022-09-24T01:11:58.716Z,15.02
2022-09-24T01:12:58.725Z,14.97
2022-09-24T01:13:58.739Z,14.91
2022-09-24T01:14:58.737Z,14.91
2022-09-24T01:15:58.829Z,14.79
2022-09-24T01:16:58.762Z,14.77
2022-09-24T01:17:58.762Z,14.81
2022-09-24T01:18:58.770Z,14.81
2022-09-24T01:19:58.799Z,14.78
2022-09-24T01:20:58.787Z,14.86
2022-09-24T01:21:58.801Z,14.91
2022-09-24T01:22:58.807Z,14.89
2022-09-24T01:23:58.818Z,14.94
2022-09-24T01:24:58.818Z,15.00
2022-09-24T01:25:58.833Z,14.99
2022-09-24T01:26:58.839Z,14.99
2022-09-24T01:27:58.842Z,15.07
2022-09-24T01:28:58.856Z,15.03
2022-09-24T01:29:58.863Z,15.14
2022-09-24T01:30:58.870Z,15.10
2022-09-24T01:31:58.878Z,15.14
2022-09-24T01:32:58.880Z,15.10
2022-09-24T01:33:58.893Z,15.10
2022-09-24T01:34:58.896Z,15.10
2022-09-24T01:35:58.926Z,15.07
2022-09-24T01:36:58.920Z,15.14
2022-09-24T01:37:58.919Z,15.09
2022-09-24T01:38:58.927Z,15.11
2022-09-24T01:39:58.936Z,15.09
2022-09-24T01:40:58.942Z,15.09
2022-09-24T01:41:58.956Z,15.21
2022-09-24T01:42:58.964Z,15.09
2022-09-24T01:43:58.967Z,15.10
2022-09-24T01:44:58.974Z,15.11
2022-09-24T01:45:58.979Z,15.09
2022-09-24T01:46:59.068Z,15.11
2022-09-24T01:47:58.996Z,15.09
2022-09-24T01:48:59.003Z,15.09
2022-09-24T01:49:59.012Z,15.11
2022-09-24T01:50:59.027Z,15.11
2022-09-24T01:51:59.056Z,15.09
2022-09-24T01:52:59.049Z,15.09
2022-09-24T01:53:59.050Z,15.11
2022-09-24T01:54:59.050Z,15.09
2022-09-24T01:55:59.060Z,15.14
2022-09-24T01:56:59.068Z,15.04
2022-09-24T01:57:59.076Z,14.99
2022-09-24T01:58:59.088Z,14.91
2022-09-24T01:59:59.090Z,14.96
2022-09-24T02:00:59.165Z,14.86
2022-09-24T02:01:59.176Z,14.84
2022-09-24T02:02:59.118Z,14.86
2022-09-24T02:03:59.122Z,14.79
2022-09-24T02:04:59.128Z,14.79
2022-09-24T02:05:59.143Z,14.81
2022-09-24T02:06:59.155Z,14.86
2022-09-24T02:07:59.183Z,14.73
2022-09-24T02:08:59.167Z,14.70
2022-09-24T02:09:59.165Z,14.66
2022-09-24T02:10:59.182Z,14.78
2022-09-24T02:11:59.190Z,14.79
2022-09-24T02:12:59.191Z,14.81
2022-09-24T02:13:59.204Z,14.79
2022-09-24T02:14:59.206Z,14.85
2022-09-24T02:15:59.259Z,14.78
2022-09-24T02:16:59.223Z,14.78
2022-09-24T02:17:59.235Z,14.78
2022-09-24T02:18:59.237Z,14.85
2022-09-24T02:19:59.253Z,14.84
2022-09-24T02:20:59.261Z,14.85
2022-09-24T02:21:59.265Z,14.88
2022-09-24T02:22:59.267Z,14.92
2022-09-24T02:23:59.300Z,14.91
2022-09-24T02:24:59.288Z,14.94
2022-09-24T02:25:59.296Z,14.96
2022-09-24T02:26:59.295Z,14.97
2022-09-24T02:27:59.304Z,15.00
2022-09-24T02:28:59.319Z,14.94
2022-09-24T02:29:59.327Z,14.97
2022-09-24T02:30:59.411Z,14.94
2022-09-24T02:31:59.344Z,14.99
2022-09-24T02:32:59.342Z,14.91
2022-09-24T02:33:59.350Z,14.94
2022-09-24T02:34:59.357Z,15.04
2022-09-24T02:35:59.367Z,14.91
2022-09-24T02:36:59.385Z,15.00
2022-09-24T02:38:02.752Z,14.92
2022-09-24T02:38:59.395Z,14.91
2022-09-24T02:39:59.435Z,15.04
2022-09-24T02:40:59.407Z,15.00
2022-09-24T02:41:59.418Z,14.97
2022-09-24T02:42:59.421Z,14.97
2022-09-24T02:43:59.426Z,14.96
2022-09-24T02:44:59.445Z,14.94
2022-09-24T02:45:59.442Z,14.96
2022-09-24T02:46:59.514Z,15.02
2022-09-24T02:47:59.458Z,14.94
2022-09-24T02:48:59.470Z,14.97
2022-09-24T02:49:59.480Z,14.96
2022-09-24T02:50:59.482Z,14.91
2022-09-24T02:51:59.498Z,14.97
2022-09-24T02:52:59.507Z,14.99
2022-09-24T02:53:59.504Z,14.97
2022-09-24T02:54:59.513Z,14.89
2022-09-24T02:55:59.679Z,14.89
2022-09-24T02:56:59.535Z,14.84
2022-09-24T02:57:59.535Z,14.81
2022-09-24T02:58:59.542Z,14.86
2022-09-24T02:59:59.558Z,14.81
2022-09-24T03:00:59.560Z,14.84
2022-09-24T03:01:59.710Z,14.78
2022-09-24T03:02:59.679Z,14.81
2022-09-24T03:03:59.590Z,14.69
2022-09-24T03:04:59.589Z,14.70
2022-09-24T03:05:59.607Z,14.62
2022-09-24T03:06:59.604Z,14.70
2022-09-24T03:07:59.622Z,14.70
2022-09-24T03:08:59.621Z,14.68
2022-09-24T03:09:59.635Z,14.65
2022-09-24T03:10:59.642Z,14.68
2022-09-24T03:11:59.665Z,14.60
2022-09-24T03:12:59.650Z,14.62
2022-09-24T03:13:59.661Z,14.60
2022-09-24T03:14:59.665Z,14.65
2022-09-24T03:15:59.698Z,14.66
2022-09-24T03:16:59.683Z,14.54
2022-09-24T03:17:59.688Z,14.62
2022-09-24T03:18:59.697Z,14.60
2022-09-24T03:20:59.716Z,14.48
2022-09-24T03:40:06.642Z,14.63
2022-09-24T04:29:04.623Z,14.10
2022-09-24T04:30:08.569Z,14.12
2022-09-24T04:31:04.594Z,14.17
2022-09-24T04:44:19.100Z,14.29
2022-09-24T04:45:19.093Z,14.40
2022-09-24T04:46:19.243Z,14.37
2022-09-24T04:47:19.095Z,14.41
2022-09-24T04:48:19.109Z,14.35
2022-09-24T04:49:19.111Z,14.33
2022-09-24T04:50:19.120Z,14.43
2022-09-24T04:51:19.129Z,14.36
2022-09-24T04:52:19.132Z,14.37
2022-09-24T04:53:19.146Z,14.43
2022-09-24T04:54:19.153Z,14.40
2022-09-24T04:55:19.152Z,14.35
2022-09-24T04:56:19.171Z,14.37
2022-09-24T04:57:19.167Z,14.37
2022-09-24T04:58:19.175Z,14.40
2022-09-24T04:59:19.183Z,14.41
2022-09-24T05:00:19.211Z,14.37
2022-09-24T05:01:19.271Z,14.36
2022-09-24T05:02:19.339Z,14.32
2022-09-24T05:03:19.212Z,14.32
2022-09-24T05:04:19.225Z,14.35
2022-09-24T05:05:19.234Z,14.29
2022-09-24T05:06:19.239Z,14.35
2022-09-24T05:07:19.248Z,14.40
2022-09-24T05:08:19.254Z,14.29
2022-09-24T05:09:19.262Z,14.41
2022-09-24T05:10:19.263Z,14.35
2022-09-24T05:11:19.278Z,14.30
2022-09-24T05:12:19.275Z,14.41
2022-09-24T05:13:19.288Z,14.33
2022-09-24T05:14:19.291Z,14.40
2022-09-24T05:15:19.302Z,14.36
2022-09-24T05:16:19.501Z,14.35
2022-09-24T05:17:19.320Z,14.37
2022-09-24T05:18:19.323Z,14.43
2022-09-24T05:19:19.335Z,14.40
2022-09-24T05:20:19.345Z,14.45
2022-09-24T05:21:19.350Z,14.43
2022-09-24T05:22:19.351Z,14.48
2022-09-24T05:23:19.365Z,14.36
2022-09-24T05:24:19.373Z,14.44
2022-09-24T05:25:19.373Z,14.41
2022-09-24T05:26:19.381Z,14.32
2022-09-24T05:27:19.395Z,14.35
2022-09-24T05:28:19.403Z,14.33
2022-09-24T05:29:19.401Z,14.45
2022-09-24T05:30:19.427Z,14.51
2022-09-24T05:31:19.481Z,14.44
2022-09-24T05:32:19.443Z,14.45
2022-09-24T05:33:19.432Z,14.48
2022-09-24T05:34:19.439Z,14.50
2022-09-24T05:35:19.455Z,14.50
2022-09-24T05:36:19.460Z,14.65
2022-09-24T05:37:19.469Z,14.58
2022-09-24T05:38:19.476Z,14.66
2022-09-24T05:39:19.476Z,14.63
2022-09-24T05:40:19.549Z,14.63
2022-09-24T05:41:19.491Z,14.63
2022-09-24T05:42:19.507Z,14.62
2022-09-24T05:43:19.505Z,14.62
2022-09-24T05:44:19.516Z,14.58
2022-09-24T05:45:19.530Z,14.54
2022-09-24T05:46:19.577Z,14.58
2022-09-24T05:47:19.535Z,14.60
2022-09-24T05:48:19.567Z,14.58
2022-09-24T05:49:19.558Z,14.63
2022-09-24T05:50:19.565Z,14.51
2022-09-24T05:51:19.564Z,14.54
2022-09-24T05:52:19.572Z,14.53
2022-09-24T05:53:19.581Z,14.54
2022-09-24T05:54:19.596Z,14.62
2022-09-24T05:55:19.600Z,14.60
2022-09-24T05:56:19.609Z,14.58
2022-09-24T05:57:19.613Z,14.58
2022-09-24T05:58:19.625Z,14.55
2022-09-24T05:59:19.622Z,14.58
2022-09-24T06:00:19.638Z,14.51
2022-09-24T06:01:19.644Z,14.50
2022-09-24T06:02:19.741Z,14.59
2022-09-24T06:03:19.737Z,14.50
2022-09-24T06:04:19.691Z,14.59
2022-09-24T06:05:19.674Z,14.59
2022-09-24T06:06:19.675Z,14.62
2022-09-24T06:07:19.691Z,14.62
2022-09-24T06:08:19.698Z,14.59
2022-09-24T06:09:19.697Z,14.53
2022-09-24T06:10:19.712Z,14.53
2022-09-24T06:11:19.720Z,14.51
2022-09-24T06:12:19.725Z,14.47
2022-09-24T06:13:19.734Z,14.41
2022-09-24T06:14:19.739Z,14.47
2022-09-24T06:15:19.749Z,14.44
2022-09-24T06:16:19.828Z,14.43
2022-09-24T06:17:19.758Z,14.35
2022-09-24T06:18:19.762Z,14.44
2022-09-24T06:19:19.779Z,14.47
2022-09-24T06:20:19.800Z,14.53
2022-09-24T06:21:19.787Z,14.51
2022-09-24T06:22:19.792Z,14.50
2022-09-24T06:23:19.809Z,14.55
2022-09-24T06:24:19.813Z,14.65
2022-09-24T06:25:19.821Z,14.51
2022-09-24T06:26:19.826Z,14.58
2022-09-24T06:27:19.829Z,14.66
2022-09-24T06:28:19.844Z,14.63
2022-09-24T06:29:19.843Z,14.63
2022-09-24T06:30:19.859Z,14.55
2022-09-24T06:31:19.991Z,14.62
2022-09-24T06:32:19.926Z,14.62
2022-09-24T06:33:19.873Z,14.62
2022-09-24T06:34:19.890Z,14.60
2022-09-24T06:35:19.889Z,14.60
2022-09-24T06:36:19.929Z,14.59
2022-09-24T06:37:19.912Z,14.66
2022-09-24T06:38:19.913Z,14.58
2022-09-24T06:39:19.929Z,14.68
2022-09-24T06:40:20.050Z,14.62
2022-09-24T06:41:19.942Z,14.59
2022-09-24T06:42:19.944Z,14.53
2022-09-24T06:43:19.948Z,14.53
2022-09-24T06:44:19.958Z,14.50
2022-09-24T06:45:19.964Z,14.55
2022-09-24T06:46:20.052Z,14.41
2022-09-24T06:47:19.985Z,14.33
2022-09-24T06:48:19.987Z,14.44
2022-09-24T06:49:19.993Z,14.48
2022-09-24T06:50:20.009Z,14.53
2022-09-24T06:51:20.015Z,14.48
2022-09-24T06:52:20.049Z,14.59
2022-09-24T06:53:20.026Z,14.63
2022-09-24T06:54:20.038Z,14.60
2022-09-24T06:55:20.097Z,14.59
2022-09-24T06:56:20.051Z,14.53
2022-09-24T06:57:20.054Z,14.72
2022-09-24T06:58:20.122Z,14.68
2022-09-24T06:59:20.071Z,14.68
2022-09-24T07:00:20.074Z,14.68
2022-09-24T07:01:20.196Z,14.66
2022-09-24T07:02:20.117Z,14.68
2022-09-24T07:03:20.106Z,14.66
2022-09-24T07:04:20.117Z,14.69
2022-09-24T07:05:20.114Z,14.68
2022-09-24T07:06:20.129Z,14.72
2022-09-24T07:07:20.135Z,14.68
2022-09-24T07:08:20.157Z,14.66
2022-09-24T07:09:20.149Z,14.70
2022-09-24T07:10:20.156Z,14.65
2022-09-24T07:11:20.159Z,14.69
2022-09-24T07:12:20.174Z,14.66
2022-09-24T07:13:20.175Z,14.68
2022-09-24T07:14:20.190Z,14.66
2022-09-24T07:15:20.191Z,14.66
2022-09-24T07:16:20.301Z,14.66
2022-09-24T07:17:20.207Z,14.73
2022-09-24T07:18:20.220Z,14.73
2022-09-24T07:19:20.222Z,14.72
2022-09-24T07:20:20.234Z,14.68
2022-09-24T07:21:20.236Z,14.79
2022-09-24T07:22:20.252Z,14.77
2022-09-24T07:23:20.260Z,14.84
2022-09-24T07:24:20.280Z,14.89
2022-09-24T07:25:20.275Z,14.92
2022-09-24T07:26:20.274Z,14.97
2022-09-24T07:27:20.289Z,15.00
2022-09-24T07:28:20.289Z,15.02
2022-09-24T07:29:20.300Z,15.07
2022-09-24T07:30:20.310Z,15.09
2022-09-24T07:31:20.363Z,15.14
2022-09-24T07:32:20.330Z,15.11
2022-09-24T07:33:20.330Z,15.06
2022-09-24T07:34:20.343Z,15.06
2022-09-24T07:35:20.354Z,15.14
2022-09-24T07:36:20.351Z,15.18
2022-09-24T07:37:20.364Z,15.18
2022-09-24T07:38:20.381Z,15.27
2022-09-24T07:39:20.386Z,15.21
2022-09-24T07:40:20.507Z,15.35
2022-09-24T07:41:20.401Z,15.27
2022-09-24T07:42:20.404Z,15.29
2022-09-24T07:43:20.419Z,15.22
2022-09-24T07:44:20.426Z,15.36
2022-09-24T07:45:20.434Z,15.29
2022-09-24T07:46:20.515Z,15.36
2022-09-24T07:47:20.451Z,15.39
2022-09-24T07:48:20.449Z,15.44
2022-09-24T07:49:20.458Z,15.46
2022-09-24T07:50:20.466Z,15.47
2022-09-24T07:51:20.476Z,15.46
2022-09-24T07:52:20.480Z,15.39
2022-09-24T07:53:20.499Z,15.47
2022-09-24T07:54:20.505Z,15.44
2022-09-24T07:55:20.516Z,15.40
2022-09-24T07:56:20.534Z,15.43
2022-09-24T07:57:20.533Z,15.29
2022-09-24T07:58:20.570Z,15.39
2022-09-24T07:59:20.547Z,15.43
2022-09-24T08:00:20.556Z,15.42
2022-09-24T08:01:20.692Z,15.47
2022-09-24T08:02:20.564Z,15.40
2022-09-24T08:03:20.698Z,15.42
2022-09-24T08:04:20.666Z,15.42
2022-09-24T08:05:20.599Z,15.44
2022-09-24T08:06:20.612Z,15.54
2022-09-24T08:07:20.615Z,15.46
2022-09-24T08:08:20.614Z,15.54
2022-09-24T08:09:20.628Z,15.58
2022-09-24T08:10:20.631Z,15.64
2022-09-24T08:11:20.642Z,15.68
2022-09-24T08:12:20.674Z,15.58
2022-09-24T08:13:24.036Z,15.62
2022-09-24T08:14:20.672Z,15.57
2022-09-24T08:15:20.672Z,15.72
2022-09-24T08:16:20.781Z,15.72
2022-09-24T08:17:20.695Z,15.80
2022-09-24T08:34:30.656Z,16.66
2022-09-24T08:39:12.692Z,16.91
2022-09-24T08:40:12.775Z,17.02
2022-09-24T08:41:12.716Z,17.06
2022-09-24T08:42:12.745Z,17.11
2022-09-24T08:43:12.730Z,17.24
2022-09-24T08:44:12.743Z,17.19
2022-09-24T08:45:12.753Z,17.22
2022-09-24T08:46:12.881Z,17.26
2022-09-24T08:47:12.766Z,17.19
2022-09-24T08:48:12.782Z,17.16
2022-09-24T08:49:12.793Z,17.09
2022-09-24T08:50:12.822Z,17.06
2022-09-24T08:51:12.818Z,17.20
2022-09-24T08:52:12.820Z,17.16
2022-09-24T08:53:12.822Z,17.12
2022-09-24T08:54:12.831Z,17.14
2022-09-24T08:55:12.854Z,17.11
2022-09-24T08:56:12.849Z,17.09
2022-09-24T08:57:12.867Z,17.12
2022-09-24T08:58:12.870Z,17.02
2022-09-24T08:59:12.885Z,17.02
2022-09-24T09:00:12.898Z,17.02
2022-09-24T09:01:13.082Z,17.01
2022-09-24T09:02:13.049Z,16.93
2022-09-24T09:03:12.969Z,16.84
2022-09-24T09:04:12.927Z,16.96
2022-09-24T09:05:12.942Z,16.79
2022-09-24T09:06:12.974Z,16.86
2022-09-24T09:07:12.958Z,16.86
2022-09-24T09:08:42.176Z,16.79
2022-09-24T09:09:12.973Z,16.79
2022-09-24T09:10:12.986Z,16.89
2022-09-24T09:11:12.993Z,16.90
2022-09-24T09:12:13.011Z,16.96
2022-09-24T09:13:13.019Z,17.04
2022-09-24T09:14:13.021Z,17.05
2022-09-24T09:15:13.032Z,17.08
2022-09-24T09:16:13.207Z,17.09
2022-09-24T09:17:13.064Z,17.24
2022-09-24T09:18:13.059Z,17.19
2022-09-24T09:19:13.071Z,17.38
2022-09-24T09:20:13.080Z,17.30
2022-09-24T09:21:13.098Z,17.45
2022-09-24T09:22:13.122Z,17.59
2022-09-24T09:23:13.112Z,17.63
2022-09-24T09:24:13.130Z,17.71
2022-09-24T09:25:13.138Z,17.89
2022-09-24T09:26:13.143Z,17.95
2022-09-24T09:27:13.158Z,18.07
2022-09-24T09:28:13.168Z,18.15
2022-09-24T09:29:13.181Z,18.28
2022-09-24T09:30:14.306Z,18.45
2022-09-24T09:31:13.305Z,18.49
2022-09-24T09:32:13.245Z,18.60
2022-09-24T09:33:13.214Z,18.71
2022-09-24T09:34:13.230Z,18.77
2022-09-24T09:35:13.242Z,18.89
2022-09-24T09:36:13.244Z,19.02
2022-09-24T09:37:13.264Z,19.14
2022-09-24T09:38:13.296Z,19.19
2022-09-24T09:39:13.287Z,19.36
2022-09-24T09:40:13.342Z,19.41
2022-09-24T09:41:13.311Z,19.48
2022-09-24T09:42:13.319Z,19.41
2022-09-24T09:43:13.331Z,19.52
2022-09-24T09:44:13.337Z,19.51
2022-09-24T09:45:13.347Z,19.52
2022-09-24T09:46:13.394Z,19.55
2022-09-24T09:47:13.372Z,19.52
2022-09-24T09:48:13.382Z,19.41
2022-09-24T09:49:13.398Z,19.45
2022-09-24T09:50:13.407Z,19.47
2022-09-24T09:51:13.426Z,19.34
2022-09-24T09:52:13.429Z,19.37
2022-09-24T09:53:13.441Z,19.29
2022-09-24T09:54:13.481Z,19.27
2022-09-24T09:55:13.473Z,19.29
2022-09-24T09:56:13.476Z,19.34
2022-09-24T09:57:13.495Z,19.41
2022-09-24T09:58:13.499Z,19.40
2022-09-24T09:59:13.511Z,19.56
2022-09-24T10:00:13.522Z,19.69
2022-09-24T10:01:13.535Z,19.67
2022-09-24T10:02:13.643Z,19.77
2022-09-24T10:03:13.738Z,19.96
2022-09-24T10:04:13.579Z,19.95
2022-09-24T10:05:18.189Z,20.16
2022-09-24T10:06:13.595Z,20.18
2022-09-24T10:07:13.607Z,20.22
2022-09-24T10:08:13.625Z,20.22
2022-09-24T10:09:13.639Z,20.25
2022-09-24T10:10:13.666Z,20.28
2022-09-24T10:36:02.666Z,20.19
2022-09-24T10:37:06.069Z,20.22
2022-09-24T10:40:28.655Z,20.07
2022-09-24T10:41:28.538Z,20.10
2022-09-24T10:44:54.405Z,20.10
2022-09-24T10:50:03.608Z,20.18
2022-09-24T10:51:03.622Z,20.21
2022-09-24T10:52:03.644Z,20.13
2022-09-24T10:53:03.627Z,20.19
2022-09-24T10:54:03.645Z,20.26
2022-09-24T10:55:03.662Z,20.29
2022-09-24T10:56:03.663Z,20.32
2022-09-24T10:57:03.679Z,20.43
2022-09-24T10:58:03.684Z,20.48
2022-09-24T10:59:03.706Z,20.59
2022-09-24T11:00:03.717Z,20.70
2022-09-24T11:01:03.729Z,20.82
2022-09-24T11:02:03.842Z,20.78
2022-09-24T11:03:03.825Z,20.82
2022-09-24T11:04:03.767Z,20.97
2022-09-24T11:05:03.779Z,21.07
2022-09-24T11:06:03.790Z,21.17
2022-09-24T11:07:03.803Z,21.21
2022-09-24T11:08:03.838Z,21.35
2022-09-24T16:18:00.961Z,19.04
2022-09-24T16:19:00.949Z,19.00
2022-09-24T16:20:00.951Z,18.92
2022-09-24T16:21:00.965Z,18.93
2022-09-24T16:22:04.400Z,18.90
2022-09-24T16:23:00.979Z,18.88
2022-09-24T18:27:46.230Z,17.44
2022-09-24T18:28:46.225Z,17.46
2022-09-24T18:29:46.226Z,17.45
2022-09-24T18:31:53.826Z,17.45
2022-09-24T18:32:53.839Z,17.38
2022-09-24T18:33:53.844Z,17.39
2022-09-24T18:34:53.858Z,17.42
2022-09-24T18:35:53.869Z,17.41
2022-09-24T18:36:53.867Z,17.44
2022-09-24T18:37:53.875Z,17.41
2022-09-24T18:38:53.882Z,17.46
2022-09-24T18:39:53.900Z,17.41
2022-09-24T18:40:56.627Z,17.44
2022-09-24T18:41:54.116Z,17.44
2022-09-24T20:42:24.943Z,16.54
2022-09-24T20:43:24.850Z,16.53
2022-09-24T20:44:24.862Z,16.56
2022-09-24T20:45:24.898Z,16.54
2022-09-24T20:46:24.951Z,16.46
2022-09-24T20:47:24.881Z,16.47
2022-09-24T20:48:24.879Z,16.47
2022-09-24T20:49:24.888Z,16.50
2022-09-24T20:50:24.904Z,16.47
2022-09-24T20:51:24.911Z,16.50
2022-09-24T20:52:24.911Z,16.51
2022-09-24T20:53:24.927Z,16.42
2022-09-24T20:54:24.927Z,16.43
2022-09-24T20:55:24.934Z,16.47
2022-09-24T20:56:24.944Z,16.39
2022-09-24T20:57:24.958Z,16.42
2022-09-24T20:58:24.989Z,16.38
2022-09-24T20:59:24.977Z,16.38
2022-09-24T21:00:24.977Z,16.36
2022-09-24T21:01:25.126Z,16.33
2022-09-24T21:02:25.085Z,16.38
2022-09-24T21:03:43.217Z,16.41
2022-09-24T21:04:25.008Z,16.43
2022-09-24T21:05:25.026Z,16.46
2022-09-24T21:06:25.024Z,16.49
2022-09-24T21:07:25.034Z,16.46
2022-09-24T21:08:25.054Z,16.50
2022-09-24T21:09:25.049Z,16.39
2022-09-24T21:10:25.065Z,16.36
2022-09-24T21:11:25.075Z,16.42
2022-09-24T21:12:25.075Z,16.41
2022-09-24T21:13:25.083Z,16.42
2022-09-24T21:14:25.121Z,16.35
2022-09-24T21:15:25.100Z,16.42
2022-09-24T21:16:25.164Z,16.42
2022-09-24T21:17:25.124Z,16.38
2022-09-24T21:18:31.044Z,16.39
2022-09-24T21:19:25.141Z,16.46
2022-09-24T21:20:25.151Z,16.36
2022-09-24T21:21:25.159Z,16.38
2022-09-24T21:22:25.159Z,16.33
2022-09-24T21:23:25.166Z,16.36
2022-09-24T21:24:30.576Z,16.38
2022-09-24T21:25:52.250Z,16.36
2022-09-24T21:26:25.202Z,16.36
2022-09-24T21:27:25.211Z,16.36
2022-09-24T21:28:25.218Z,16.43
2022-09-24T21:29:25.218Z,16.43
2022-09-24T21:30:25.403Z,16.36
2022-09-24T21:31:25.311Z,16.35
2022-09-24T21:32:25.251Z,16.33
2022-09-24T21:33:25.250Z,16.36
2022-09-24T21:34:25.266Z,16.33
2022-09-24T21:35:25.268Z,16.32
2022-09-24T21:36:25.286Z,16.35
2022-09-24T21:37:25.296Z,16.31
2022-09-24T21:38:25.295Z,16.33
2022-09-24T21:39:25.303Z,16.32
2022-09-24T21:40:25.322Z,16.36
2022-09-24T21:41:25.320Z,16.35
2022-09-24T21:42:25.326Z,16.26
2022-09-24T21:43:26.215Z,16.32
2022-09-24T21:44:25.346Z,16.28
2022-09-24T21:45:25.360Z,16.23
2022-09-24T21:46:25.449Z,16.24
2022-09-24T21:47:25.370Z,16.17
2022-09-24T21:48:25.381Z,16.16
2022-09-24T21:49:25.394Z,16.17
2022-09-24T21:50:25.394Z,16.17
2022-09-24T21:51:25.404Z,16.15
2022-09-24T21:52:25.411Z,16.17
2022-09-24T21:53:25.427Z,16.20
2022-09-24T21:54:25.437Z,16.16
2022-09-24T21:55:25.445Z,16.21
2022-09-24T21:56:25.474Z,16.20
2022-09-24T21:57:25.461Z,16.15
2022-09-24T21:58:25.468Z,16.17
2022-09-24T21:59:25.475Z,16.24
2022-09-24T22:00:25.486Z,16.24
2022-09-24T22:01:25.536Z,16.12
2022-09-24T22:02:25.639Z,16.10
2022-09-24T22:03:25.512Z,16.13
2022-09-24T22:04:25.521Z,16.12
2022-09-24T22:05:25.527Z,16.17
2022-09-24T22:06:25.535Z,16.12
2022-09-24T22:07:25.546Z,16.02
2022-09-24T22:08:25.553Z,16.13
2022-09-24T22:09:25.553Z,16.20
2022-09-24T22:10:25.562Z,16.13
2022-09-24T22:11:25.579Z,16.16
2022-09-24T22:12:25.593Z,16.05
2022-09-24T22:13:25.587Z,16.16
2022-09-24T22:14:25.602Z,16.16
2022-09-24T22:15:25.604Z,16.15
2022-09-24T22:16:25.677Z,16.16
2022-09-24T22:17:25.626Z,16.05
2022-09-24T22:18:25.650Z,16.15
2022-09-24T22:19:25.642Z,16.10
2022-09-24T22:20:25.645Z,16.16
2022-09-24T22:21:25.654Z,16.20
2022-09-24T22:22:25.664Z,16.16
2022-09-24T22:23:25.671Z,16.20
2022-09-24T22:24:25.682Z,16.20
2022-09-24T22:25:25.693Z,16.20
2022-09-24T22:26:25.696Z,16.20
2022-09-24T22:27:25.710Z,16.13
2022-09-24T22:28:25.713Z,16.12
2022-09-24T22:29:25.727Z,16.17
2022-09-24T22:30:25.787Z,16.21
2022-09-24T22:31:25.770Z,16.17
2022-09-24T22:32:25.757Z,16.17
2022-09-24T22:33:25.762Z,16.16
2022-09-24T22:34:25.795Z,16.16
2022-09-24T22:35:25.771Z,16.17
2022-09-24T22:36:25.786Z,16.08
2022-09-24T22:37:25.794Z,16.16
2022-09-24T22:38:25.801Z,16.13
2022-09-24T22:39:25.805Z,16.02
2022-09-24T22:40:25.842Z,16.13
2022-09-24T22:41:25.827Z,16.09
2022-09-24T22:42:25.826Z,16.02
2022-09-24T22:43:25.845Z,16.13
2022-09-24T22:44:25.854Z,16.15
2022-09-24T22:45:25.854Z,16.16
2022-09-24T22:46:25.898Z,16.17
2022-09-24T22:47:25.870Z,16.12
2022-09-24T22:48:25.879Z,16.12
2022-09-24T22:49:25.892Z,16.17
2022-09-24T22:50:25.926Z,16.17
2022-09-24T22:51:25.910Z,16.16
2022-09-24T22:52:25.912Z,16.20
2022-09-24T22:53:25.919Z,16.13
2022-09-24T22:54:25.928Z,16.13
2022-09-24T22:55:25.935Z,16.16
2022-09-24T22:56:25.948Z,16.05
2022-09-24T22:57:25.950Z,16.13
2022-09-24T22:58:25.962Z,16.10
2022-09-24T22:59:25.968Z,16.04
2022-09-24T23:00:25.986Z,16.01
2022-09-24T23:01:26.086Z,16.08
2022-09-24T23:02:25.995Z,16.00
2022-09-24T23:03:26.011Z,16.02
2022-09-24T23:04:26.018Z,16.02
2022-09-24T23:05:26.129Z,16.02
2022-09-24T23:06:26.046Z,16.04
2022-09-24T23:07:26.044Z,16.01
2022-09-24T23:08:26.052Z,16.02
2022-09-24T23:09:26.053Z,16.00
2022-09-24T23:10:26.061Z,16.02
2022-09-24T23:11:26.072Z,16.00
2022-09-24T23:12:26.085Z,15.97
2022-09-24T23:13:26.095Z,16.00
2022-09-24T23:14:26.100Z,15.95
2022-09-24T23:15:26.109Z,15.95
2022-09-24T23:16:26.183Z,15.86
2022-09-24T23:17:26.126Z,15.83
2022-09-24T23:18:26.133Z,15.86
2022-09-24T23:19:26.136Z,16.01
2022-09-24T23:20:26.144Z,15.97
2022-09-24T23:21:26.158Z,16.00
2022-09-24T23:22:26.189Z,16.04
2022-09-24T23:23:26.169Z,16.02
2022-09-24T23:24:26.185Z,15.97
2022-09-24T23:25:26.190Z,16.02
2022-09-24T23:26:26.196Z,15.98
2022-09-24T23:27:26.208Z,16.02
2022-09-24T23:28:26.216Z,16.00
2022-09-24T23:29:26.223Z,15.98
2022-09-24T23:30:26.287Z,15.95
2022-09-24T23:31:26.233Z,15.95
2022-09-24T23:32:26.251Z,15.94
2022-09-24T23:33:26.255Z,16.00
2022-09-24T23:34:26.266Z,16.00
2022-09-24T23:35:26.272Z,15.92
2022-09-24T23:36:26.275Z,15.84
2022-09-24T23:37:26.290Z,15.88
2022-09-24T23:38:26.311Z,15.86
2022-09-24T23:39:26.299Z,15.86
2022-09-24T23:40:26.352Z,15.91
2022-09-24T23:41:26.324Z,15.84
2022-09-24T23:42:26.323Z,15.90
2022-09-24T23:43:26.333Z,15.86
2022-09-24T23:44:26.342Z,15.83
2022-09-24T23:45:26.349Z,15.77
2022-09-24T23:46:26.422Z,15.88
2022-09-24T23:47:26.374Z,15.83
2022-09-24T23:48:26.373Z,15.86
2022-09-24T23:49:26.391Z,15.83
2022-09-24T23:50:26.389Z,15.80
2022-09-24T23:51:26.399Z,15.83
2022-09-24T23:52:26.407Z,15.79
2022-09-24T23:53:26.420Z,15.79
2022-09-24T23:54:26.451Z,15.76
2022-09-24T23:55:26.431Z,15.80
2022-09-24T23:56:26.440Z,15.83
2022-09-24T23:57:26.449Z,15.77
2022-09-24T23:58:26.463Z,15.86
2022-09-24T23:59:26.472Z,15.76
